Time;durP1;ratioP1;P1;durP2;ratioP2;P2;SDS_P1;SDS_P2;PMS_P1;PMS_P2;Temp;Humidity;BMP_temperature;BMP_pressure;BME280_temperature;BME280_humidity;BME280_pressure;Samples;Min_cycle;Max_cycle;Signal;HPM_P1;HPM_P2
2023/10/08 00:01:41;;;;;;;4.43;0.30;;;12.50;99.90;;;;;;5079773;28;20045;-79
2023/10/08 00:04:08;;;;;;;0.38;0.25;;;12.50;99.90;;;;;;5038539;28;20070;-79
2023/10/08 00:06:34;;;;;;;6.70;0.40;;;12.60;99.90;;;;;;5079662;28;20080;-68
2023/10/08 00:09:06;;;;;;;1.92;0.30;;;12.50;99.90;;;;;;5045486;28;20487;-68
2023/10/08 00:11:33;;;;;;;3.58;0.22;;;12.40;99.90;;;;;;5029374;28;20040;-70
2023/10/08 00:14:01;;;;;;;1.95;0.32;;;12.60;99.90;;;;;;5049059;28;20395;-69
2023/10/08 00:16:28;;;;;;;0.10;0.10;;;12.60;99.90;;;;;;5045983;28;20102;-68
2023/10/08 00:18:58;;;;;;;2.20;0.35;;;12.50;99.90;;;;;;5049658;28;20421;-81
2023/10/08 00:21:27;;;;;;;0.95;0.20;;;12.50;99.90;;;;;;5048643;28;20044;-85
2023/10/08 00:23:59;;;;;;;0.82;0.25;;;12.50;99.90;;;;;;5053320;28;20041;-79
2023/10/08 00:26:32;;;;;;;2.38;0.60;;;12.60;99.90;;;;;;5044717;28;20546;-69
2023/10/08 00:28:59;;;;;;;2.78;0.45;;;12.60;99.90;;;;;;5046002;28;20045;-68
2023/10/08 00:31:31;;;;;;;3.40;0.35;;;12.60;99.90;;;;;;5045495;28;20099;-68
2023/10/08 00:33:57;;;;;;;1.77;0.30;;;12.60;99.90;;;;;;5047355;28;20399;-68
2023/10/08 00:36:24;;;;;;;2.53;0.20;;;12.40;99.90;;;;;;5047653;28;20064;-83
2023/10/08 00:38:59;;;;;;;1.38;0.20;;;12.40;99.90;;;;;;5046249;28;20037;-68
2023/10/08 00:41:32;;;;;;;3.08;0.73;;;12.50;99.90;;;;;;5045827;28;20041;-74
2023/10/08 00:44:01;;;;;;;4.15;0.30;;;12.40;99.90;;;;;;5045716;28;20399;-68
2023/10/08 00:46:31;;;;;;;0.60;0.20;;;12.50;99.90;;;;;;5046049;28;20041;-68
2023/10/08 00:48:59;;;;;;;2.90;0.20;;;12.50;99.90;;;;;;5046145;28;20132;-70
2023/10/08 00:51:40;;;;;;;2.00;0.40;;;12.40;99.90;;;;;;5044602;28;20053;-67
2023/10/08 00:54:07;;;;;;;0.80;0.30;;;12.50;99.90;;;;;;5047940;28;20057;-68
2023/10/08 00:56:57;;;;;;;1.67;0.40;;;12.40;99.90;;;;;;5045924;28;20111;-72
2023/10/08 00:59:23;;;;;;;0.60;0.60;;;12.50;99.90;;;;;;5078972;28;20095;-68
2023/10/08 01:02:00;;;;;;;0.73;0.32;;;12.40;99.90;;;;;;5048501;28;20515;-75
2023/10/08 01:04:26;;;;;;;2.00;0.40;;;12.40;99.90;;;;;;5038131;28;20049;-68
2023/10/08 01:06:56;;;;;;;4.72;0.68;;;12.40;99.90;;;;;;5075710;28;20064;-68
2023/10/08 01:09:31;;;;;;;0.65;0.45;;;12.30;99.90;;;;;;5049246;28;20056;-76
2023/10/08 01:12:15;;;;;;;3.17;0.50;;;12.40;99.90;;;;;;5065056;28;20053;-69
2023/10/08 01:14:42;;;;;;;1.35;0.38;;;12.40;99.90;;;;;;5049421;28;20095;-68
2023/10/08 01:17:19;;;;;;;5.32;0.50;;;12.40;99.90;;;;;;5052722;28;20057;-68
2023/10/08 01:20:08;;;;;;;3.30;0.80;;;12.40;99.90;;;;;;5083085;28;20490;-68
2023/10/08 01:22:34;;;;;;;10.25;0.75;;;12.40;99.90;;;;;;5047569;28;20060;-68
2023/10/08 01:25:02;;;;;;;2.30;0.40;;;12.40;99.90;;;;;;5051107;28;20045;-69
2023/10/08 01:27:34;;;;;;;2.65;0.47;;;12.50;99.90;;;;;;5050422;28;20083;-68
2023/10/08 01:30:12;;;;;;;4.57;0.70;;;12.50;99.90;;;;;;5048554;28;20143;-68
2023/10/08 01:32:38;;;;;;;5.47;0.85;;;12.50;99.90;;;;;;5050159;28;20076;-68
2023/10/08 01:35:15;;;;;;;5.78;0.63;;;12.50;99.90;;;;;;5049739;28;20491;-68
2023/10/08 01:37:41;;;;;;;9.38;0.68;;;12.50;99.90;;;;;;5050356;28;20592;-68
2023/10/08 01:40:07;;;;;;;2.85;0.30;;;12.40;99.90;;;;;;5063593;28;20048;-68
2023/10/08 01:42:38;;;;;;;4.00;0.60;;;12.50;99.90;;;;;;5048508;28;20041;-69
2023/10/08 01:45:06;;;;;;;5.80;0.63;;;12.50;99.90;;;;;;5049201;28;20047;-68
2023/10/08 01:47:32;;;;;;;5.40;0.50;;;12.50;99.90;;;;;;5081596;28;20049;-68
2023/10/08 01:50:05;;;;;;;0.95;0.55;;;12.50;99.90;;;;;;5050337;28;20090;-68
2023/10/08 01:52:31;;;;;;;3.03;0.70;;;12.50;99.90;;;;;;5051001;28;20123;-68
2023/10/08 01:54:57;;;;;;;7.93;1.15;;;12.50;99.90;;;;;;5048668;28;20045;-68
2023/10/08 01:57:24;;;;;;;3.58;0.60;;;12.40;99.90;;;;;;5049352;28;20084;-67
2023/10/08 01:59:49;;;;;;;9.73;0.90;;;12.40;99.90;;;;;;5049608;28;20044;-68
2023/10/08 02:02:15;;;;;;;4.57;1.00;;;12.40;99.90;;;;;;5052301;28;20061;-82
2023/10/08 02:04:41;;;;;;;9.00;1.52;;;12.40;99.90;;;;;;5056917;28;20124;-67
2023/10/08 02:07:08;;;;;;;8.10;1.13;;;12.50;99.90;;;;;;5049100;28;20095;-68
2023/10/08 02:09:37;;;;;;;3.28;0.88;;;12.60;99.90;;;;;;5080488;28;20045;-67
2023/10/08 02:12:03;;;;;;;4.00;0.75;;;12.50;99.90;;;;;;5082417;28;20088;-68
2023/10/08 02:14:31;;;;;;;4.43;0.70;;;12.50;99.90;;;;;;5048834;28;20429;-68
2023/10/08 02:17:03;;;;;;;4.40;0.98;;;12.50;99.90;;;;;;5048050;28;20139;-67
2023/10/08 02:19:29;;;;;;;5.47;1.13;;;12.50;99.90;;;;;;5048130;28;20040;-68
2023/10/08 02:21:56;;;;;;;7.05;1.02;;;12.50;99.90;;;;;;5047076;28;20107;-68
2023/10/08 02:24:25;;;;;;;11.18;1.33;;;12.50;99.90;;;;;;5051102;28;20045;-67
2023/10/08 02:26:52;;;;;;;5.43;0.77;;;12.60;99.90;;;;;;5046912;28;20407;-68
2023/10/08 02:29:19;;;;;;;5.88;0.80;;;12.50;99.90;;;;;;5049592;28;20495;-68
2023/10/08 02:31:44;;;;;;;11.02;0.90;;;12.50;99.90;;;;;;5046769;28;20407;-68
2023/10/08 02:34:12;;;;;;;5.30;1.00;;;12.60;99.90;;;;;;5053061;28;20045;-68
2023/10/08 02:36:40;;;;;;;7.35;1.00;;;12.70;99.90;;;;;;5081229;28;20047;-73
2023/10/08 02:39:24;;;;;;;3.60;0.80;;;12.60;99.90;;;;;;5046810;28;20056;-68
2023/10/08 02:41:50;;;;;;;7.75;1.05;;;12.60;99.90;;;;;;5050286;28;20123;-77
2023/10/08 02:44:17;;;;;;;2.08;0.70;;;12.70;99.90;;;;;;5063511;28;20132;-68
2023/10/08 02:46:47;;;;;;;9.88;0.93;;;12.70;99.90;;;;;;5047833;28;20048;-68
2023/10/08 02:49:20;;;;;;;1.02;0.50;;;12.70;99.90;;;;;;5048142;28;20041;-68
2023/10/08 02:51:50;;;;;;;6.65;0.82;;;12.60;99.90;;;;;;5048467;28;20372;-68
2023/10/08 02:54:17;;;;;;;1.70;0.70;;;12.70;99.90;;;;;;5049180;28;20049;-68
2023/10/08 02:56:45;;;;;;;5.15;0.80;;;12.70;99.90;;;;;;5047751;28;20503;-68
2023/10/08 02:59:13;;;;;;;3.70;0.60;;;12.70;99.90;;;;;;5049621;28;20067;-79
2023/10/08 03:01:42;;;;;;;4.38;0.88;;;12.70;99.90;;;;;;5047049;28;20045;-68
2023/10/08 03:04:18;;;;;;;8.40;1.35;;;12.70;99.90;;;;;;5043213;28;20041;-74
2023/10/08 03:06:52;;;;;;;4.75;0.75;;;12.70;99.90;;;;;;5053077;28;20070;-68
2023/10/08 03:09:31;;;;;;;10.30;1.13;;;12.70;99.90;;;;;;5050856;28;20044;-74
2023/10/08 03:11:58;;;;;;;4.60;1.00;;;12.60;99.90;;;;;;5049112;28;20080;-67
2023/10/08 03:14:26;;;;;;;2.63;0.60;;;12.60;99.90;;;;;;5047489;28;20128;-67
2023/10/08 03:16:53;;;;;;;8.55;0.90;;;12.60;99.90;;;;;;5047321;28;20490;-67
2023/10/08 03:19:21;;;;;;;5.45;0.95;;;12.60;99.90;;;;;;5047243;28;20041;-67
2023/10/08 03:21:50;;;;;;;3.50;0.90;;;12.70;99.90;;;;;;5049058;28;20402;-67
2023/10/08 03:27:12;;;;;;;7.10;1.67;;;12.60;99.90;;;;;;5047540;28;20563;-67
2023/10/08 03:29:41;;;;;;;3.70;0.93;;;12.60;99.90;;;;;;5047152;28;20449;-72
2023/10/08 03:32:13;;;;;;;3.13;0.90;;;12.60;99.90;;;;;;5046962;28;20568;-69
2023/10/08 03:34:42;;;;;;;6.57;1.15;;;12.60;99.90;;;;;;5059093;28;20131;-75
2023/10/08 03:37:09;;;;;;;4.53;1.10;;;12.60;99.90;;;;;;5047357;28;20507;-67
2023/10/08 03:40:00;;;;;;;4.72;0.90;;;12.60;99.90;;;;;;5079731;28;20057;-68
2023/10/08 03:42:33;;;;;;;4.32;1.00;;;12.60;99.90;;;;;;5074148;28;20055;-68
2023/10/08 03:45:09;;;;;;;5.32;1.02;;;12.50;99.90;;;;;;5055114;28;20045;-67
2023/10/08 03:47:37;;;;;;;9.52;1.10;;;12.50;99.90;;;;;;5048501;28;20080;-68
2023/10/08 03:50:09;;;;;;;6.20;1.55;;;12.60;99.90;;;;;;5047185;28;20075;-68
2023/10/08 03:52:39;;;;;;;8.43;1.42;;;12.50;99.90;;;;;;5055673;28;20056;-67
2023/10/08 03:57:43;;;;;;;5.63;0.90;;;12.50;99.90;;;;;;5046949;28;19960;-67
2023/10/08 04:00:17;;;;;;;3.33;0.93;;;12.50;99.90;;;;;;5079804;28;20076;-68
2023/10/08 04:02:54;;;;;;;9.80;1.38;;;12.60;99.90;;;;;;5048253;28;20041;-68
2023/10/08 04:05:32;;;;;;;6.35;1.00;;;12.60;99.90;;;;;;5048051;28;20087;-77
2023/10/08 04:13:14;;;;;;;10.27;1.15;;;12.60;99.90;;;;;;5071449;28;20416;-67
2023/10/08 04:15:43;;;;;;;7.55;1.45;;;12.70;99.90;;;;;;5044796;28;20100;-87
2023/10/08 04:18:10;;;;;;;8.90;1.10;;;12.60;99.90;;;;;;5045774;28;20102;-86
2023/10/08 04:20:39;;;;;;;8.23;1.20;;;12.70;99.90;;;;;;5046173;28;20048;-86
2023/10/08 04:23:13;;;;;;;5.43;0.90;;;12.70;99.90;;;;;;5047582;28;20420;-83
2023/10/08 04:25:41;;;;;;;5.95;0.93;;;12.70;99.90;;;;;;5046908;28;20448;-81
2023/10/08 04:28:13;;;;;;;5.28;1.02;;;12.70;99.90;;;;;;5044321;28;20093;-67
2023/10/08 04:30:41;;;;;;;7.22;1.13;;;12.80;99.90;;;;;;5046859;28;20059;-67
2023/10/08 04:33:14;;;;;;;3.88;1.08;;;12.80;99.90;;;;;;5046682;28;20083;-67
2023/10/08 04:36:07;;;;;;;10.32;1.13;;;12.80;99.90;;;;;;5047053;28;20057;-67
2023/10/08 04:38:36;;;;;;;6.72;1.38;;;12.80;99.90;;;;;;5045810;28;20080;-67
2023/10/08 04:41:08;;;;;;;4.50;0.95;;;12.80;99.90;;;;;;5044443;28;20045;-68
2023/10/08 04:43:37;;;;;;;8.77;1.40;;;12.80;99.90;;;;;;5030805;28;20122;-68
2023/10/08 04:46:19;;;;;;;5.82;1.13;;;12.90;99.90;;;;;;5044585;28;20622;-81
2023/10/08 04:48:51;;;;;;;9.73;0.90;;;12.80;99.90;;;;;;5045806;28;20052;-86
2023/10/08 04:51:18;;;;;;;4.78;1.00;;;12.90;99.90;;;;;;5046160;28;20076;-67
2023/10/08 04:53:45;;;;;;;4.40;1.35;;;12.80;99.90;;;;;;5046780;28;20079;-68
2023/10/08 04:56:18;;;;;;;3.08;1.08;;;12.90;99.90;;;;;;5047300;28;20045;-68
2023/10/08 04:58:47;;;;;;;4.65;0.75;;;12.80;99.90;;;;;;5044874;28;20490;-84
2023/10/08 05:01:20;;;;;;;6.63;1.35;;;12.80;99.90;;;;;;5046093;28;20052;-68
2023/10/08 05:15:09;;;;;;;4.55;1.00;;;12.80;99.90;;;;;;5079594;28;20061;-68
2023/10/08 05:19:50;;;;;;;6.55;0.93;;;12.70;99.90;;;;;;5046174;28;20052;-67
2023/10/08 05:25:24;;;;;;;8.82;1.50;;;12.70;99.90;;;;;;5079250;28;20053;-67
2023/10/08 05:30:38;;;;;;;3.58;0.88;;;12.70;99.90;;;;;;5047024;28;20075;-67
2023/10/08 05:33:24;;;;;;;6.97;0.88;;;12.60;99.90;;;;;;5045804;28;20128;-67
2023/10/08 05:35:54;;;;;;;6.85;1.02;;;12.60;99.90;;;;;;5066245;28;20108;-85
2023/10/08 05:49:03;;;;;;;8.27;1.30;;;12.50;99.90;;;;;;5034685;28;20049;-67
2023/10/08 06:07:56;;;;;;;14.07;1.67;;;12.60;99.90;;;;;;5037397;28;20088;-67
2023/10/08 06:13:16;;;;;;;7.07;1.38;;;12.70;99.90;;;;;;5049450;28;20057;-67
2023/10/08 06:18:25;;;;;;;10.20;1.13;;;12.60;99.90;;;;;;5082290;28;20049;-68
2023/10/08 06:21:08;;;;;;;6.80;1.02;;;12.70;99.90;;;;;;5049129;28;20483;-67
2023/10/08 06:23:39;;;;;;;9.07;1.48;;;12.60;99.90;;;;;;5081753;28;20495;-67
2023/10/08 06:28:38;;;;;;;5.13;0.98;;;12.70;99.90;;;;;;5048609;28;20128;-67
2023/10/08 06:31:06;;;;;;;6.57;1.45;;;12.60;99.90;;;;;;5059086;28;20057;-67
2023/10/08 06:33:37;;;;;;;13.45;1.17;;;12.70;99.90;;;;;;5062582;28;20222;-67
2023/10/08 06:38:40;;;;;;;3.17;0.75;;;12.80;99.90;;;;;;5048034;28;20053;-71
2023/10/08 06:41:33;;;;;;;6.88;0.82;;;12.80;99.90;;;;;;5080238;28;20053;-67
2023/10/08 06:44:02;;;;;;;9.98;1.08;;;12.90;99.90;;;;;;5036929;28;20052;-67
2023/10/08 06:46:32;;;;;;;5.15;0.93;;;12.90;99.90;;;;;;5047779;28;20049;-80
2023/10/08 06:49:03;;;;;;;3.85;1.13;;;13.00;99.90;;;;;;5048542;28;20116;-71
2023/10/08 06:51:30;;;;;;;8.30;1.15;;;13.20;99.90;;;;;;5054977;28;20045;-67
2023/10/08 06:54:00;;;;;;;8.57;1.17;;;13.20;99.90;;;;;;5047827;28;20139;-67
2023/10/08 06:56:25;;;;;;;9.82;1.25;;;13.20;99.90;;;;;;5046875;28;20056;-67
2023/10/08 06:58:54;;;;;;;7.00;1.30;;;13.20;99.90;;;;;;5046651;28;20048;-67
2023/10/08 07:01:29;;;;;;;5.00;1.35;;;13.30;99.90;;;;;;5063303;28;20399;-83
2023/10/08 07:04:03;;;;;;;5.97;1.42;;;13.40;99.90;;;;;;5059493;28;20125;-67
2023/10/08 07:06:33;;;;;;;5.22;1.15;;;13.40;99.90;;;;;;5078580;28;20048;-67
2023/10/08 07:09:04;;;;;;;8.15;1.20;;;13.50;99.90;;;;;;5046403;28;20503;-68
2023/10/08 07:11:34;;;;;;;4.20;0.90;;;13.50;99.90;;;;;;5054128;28;20458;-79
2023/10/08 07:14:04;;;;;;;7.03;1.23;;;13.60;99.90;;;;;;5048754;28;20045;-68
2023/10/08 07:16:33;;;;;;;5.20;0.90;;;13.60;96.80;;;;;;5049798;28;20076;-69
2023/10/08 07:19:03;;;;;;;6.90;1.15;;;13.70;99.90;;;;;;5047305;28;20063;-67
2023/10/08 07:21:29;;;;;;;6.38;1.23;;;13.80;99.90;;;;;;5046898;28;20138;-68
2023/10/08 07:23:56;;;;;;;10.30;1.58;;;13.80;99.90;;;;;;5050941;28;20432;-68
2023/10/08 07:26:24;;;;;;;6.63;1.10;;;13.80;97.90;;;;;;5046028;28;20037;-73
2023/10/08 07:28:51;;;;;;;8.30;2.22;;;13.80;99.30;;;;;;5048321;28;20396;-68
2023/10/08 07:31:22;;;;;;;6.72;1.25;;;13.90;99.90;;;;;;5053862;28;20230;-85
2023/10/08 07:33:56;;;;;;;7.25;1.08;;;13.90;99.90;;;;;;5054704;28;20048;-76
2023/10/08 07:36:30;;;;;;;6.40;1.10;;;13.90;99.90;;;;;;5061914;28;20033;-68
2023/10/08 07:38:56;;;;;;;7.93;1.10;;;13.90;99.90;;;;;;5065340;28;20060;-81
2023/10/08 07:41:23;;;;;;;7.50;1.20;;;13.90;99.90;;;;;;5051822;28;20037;-70
2023/10/08 07:43:55;;;;;;;7.28;1.20;;;13.90;99.90;;;;;;5045787;28;20048;-68
2023/10/08 07:46:27;;;;;;;4.03;1.20;;;13.90;99.90;;;;;;5046338;28;20045;-68
2023/10/08 07:48:54;;;;;;;6.43;1.13;;;13.90;99.90;;;;;;5072808;28;20132;-68
2023/10/08 07:51:22;;;;;;;6.05;0.90;;;13.90;99.90;;;;;;5049500;28;20510;-67
2023/10/08 07:53:48;;;;;;;7.20;1.05;;;13.90;99.90;;;;;;5079930;28;20063;-68
2023/10/08 07:56:14;;;;;;;6.10;1.00;;;14.00;99.90;;;;;;5046777;28;20513;-82
2023/10/08 07:58:40;;;;;;;5.80;1.27;;;14.00;99.90;;;;;;5045955;28;20116;-67
2023/10/08 08:01:09;;;;;;;8.27;0.88;;;14.00;99.90;;;;;;5053732;28;20429;-68
2023/10/08 08:03:36;;;;;;;8.25;1.10;;;14.00;99.90;;;;;;5047254;28;20138;-68
2023/10/08 08:06:06;;;;;;;3.97;1.38;;;14.10;99.90;;;;;;5046613;28;20044;-68
2023/10/08 08:08:41;;;;;;;11.00;1.42;;;14.10;99.90;;;;;;5044765;28;20087;-68
2023/10/08 08:11:17;;;;;;;7.32;1.40;;;14.10;96.20;;;;;;5054779;28;20041;-68
2023/10/08 08:13:44;;;;;;;5.05;1.10;;;14.10;93.50;;;;;;5044730;28;20469;-81
2023/10/08 08:16:17;;;;;;;7.45;1.30;;;14.20;99.90;;;;;;5046299;28;20049;-83
2023/10/08 08:18:51;;;;;;;9.05;2.00;;;14.20;99.90;;;;;;5045263;28;20043;-68
2023/10/08 08:21:19;;;;;;;10.68;1.05;;;14.20;99.90;;;;;;5053034;28;20056;-68
2023/10/08 08:23:47;;;;;;;4.03;1.02;;;14.30;99.90;;;;;;5055326;28;20087;-68
2023/10/08 08:26:26;;;;;;;7.10;1.05;;;14.30;99.90;;;;;;5034265;28;20503;-80
2023/10/08 08:28:55;;;;;;;5.13;0.97;;;14.50;99.90;;;;;;5051186;28;20068;-68
2023/10/08 08:31:20;;;;;;;10.43;1.67;;;14.50;99.90;;;;;;5052497;28;20287;-67
2023/10/08 08:33:52;;;;;;;7.93;1.27;;;14.50;96.40;;;;;;5061147;28;20425;-68
2023/10/08 08:36:23;;;;;;;6.35;1.40;;;14.50;99.40;;;;;;5066098;28;20554;-82
2023/10/08 08:38:50;;;;;;;6.65;1.05;;;14.60;98.90;;;;;;5065192;28;20391;-68
2023/10/08 08:41:20;;;;;;;3.55;0.95;;;14.60;96.70;;;;;;5058268;28;20041;-68
2023/10/08 08:43:57;;;;;;;3.85;1.00;;;14.60;96.60;;;;;;5062622;28;20036;-68
2023/10/08 08:46:30;;;;;;;7.20;1.05;;;14.60;99.90;;;;;;5063902;28;20098;-80
2023/10/08 08:48:57;;;;;;;9.05;1.30;;;14.60;99.90;;;;;;5060507;28;20071;-68
2023/10/08 08:51:23;;;;;;;9.85;1.52;;;14.70;99.90;;;;;;5037867;28;20051;-68
2023/10/08 08:53:49;;;;;;;7.50;1.10;;;14.70;99.90;;;;;;5065430;28;20048;-68
2023/10/08 08:56:15;;;;;;;7.75;1.35;;;14.80;99.90;;;;;;5035831;28;20517;-68
2023/10/08 08:58:43;;;;;;;4.10;1.10;;;14.70;99.90;;;;;;5046783;28;20120;-68
2023/10/08 09:01:13;;;;;;;10.70;1.30;;;14.80;99.90;;;;;;5046080;28;20041;-75
2023/10/08 09:03:39;;;;;;;5.18;1.33;;;14.80;99.90;;;;;;5054573;28;20167;-68
2023/10/08 09:06:05;;;;;;;3.60;0.80;;;14.80;99.90;;;;;;5059480;28;20040;-68
2023/10/08 09:08:36;;;;;;;4.85;0.95;;;14.80;99.90;;;;;;5060678;28;20456;-67
2023/10/08 09:11:04;;;;;;;3.42;0.98;;;14.90;99.90;;;;;;5048193;28;20414;-85
2023/10/08 09:13:31;;;;;;;7.07;1.35;;;15.00;99.90;;;;;;5048435;28;20435;-68
2023/10/08 09:16:16;;;;;;;5.55;0.77;;;15.00;93.90;;;;;;5050542;28;20057;-68
2023/10/08 09:18:45;;;;;;;3.70;0.95;;;15.00;97.90;;;;;;5048086;28;20053;-68
2023/10/08 09:21:15;;;;;;;5.43;1.02;;;14.90;72.20;;;;;;5047294;28;20495;-68
2023/10/08 09:23:44;;;;;;;9.75;1.30;;;14.90;92.30;;;;;;5049242;28;20056;-80
2023/10/08 09:26:13;;;;;;;10.02;1.20;;;14.90;94.50;;;;;;5050020;28;20073;-68
2023/10/08 09:28:41;;;;;;;11.52;1.17;;;14.90;90.80;;;;;;5051160;28;20056;-68
2023/10/08 09:31:11;;;;;;;3.13;0.98;;;14.90;59.50;;;;;;5050994;28;20052;-67
2023/10/08 09:33:37;;;;;;;8.27;0.93;;;14.90;88.00;;;;;;5050709;28;20041;-68
2023/10/08 09:36:06;;;;;;;4.00;0.98;;;14.90;92.60;;;;;;5052626;28;20475;-68
2023/10/08 09:38:33;;;;;;;10.85;1.08;;;15.00;94.10;;;;;;5057315;28;20135;-68
2023/10/08 09:41:03;;;;;;;8.20;0.98;;;15.00;89.70;;;;;;5058003;28;20072;-67
2023/10/08 09:43:29;;;;;;;4.75;1.00;;;15.00;74.90;;;;;;5052613;28;20111;-71
2023/10/08 09:46:08;;;;;;;6.03;1.00;;;15.00;81.80;;;;;;5064953;28;20075;-68
2023/10/08 09:48:37;;;;;;;2.38;1.10;;;14.90;65.30;;;;;;5054121;28;20122;-68
2023/10/08 09:51:06;;;;;;;7.60;1.17;;;15.00;76.10;;;;;;5062402;28;20091;-85
2023/10/08 09:54:05;;;;;;;7.47;1.00;;;15.00;84.40;;;;;;5056808;28;20052;-68
2023/10/08 09:56:34;;;;;;;6.57;1.85;;;15.10;86.30;;;;;;5061803;28;20055;-68
2023/10/08 09:59:00;;;;;;;5.73;1.10;;;15.10;80.80;;;;;;5057542;28;20510;-67
2023/10/08 10:01:27;;;;;;;8.02;1.02;;;15.20;77.00;;;;;;5045259;28;20404;-83
2023/10/08 10:03:52;;;;;;;9.13;1.20;;;15.20;73.70;;;;;;5047882;28;20487;-68
2023/10/08 10:06:19;;;;;;;10.10;1.38;;;15.20;53.10;;;;;;5086684;28;20047;-68
2023/10/08 10:08:47;;;;;;;11.18;1.10;;;15.10;22.80;;;;;;5060073;28;20094;-67
2023/10/08 10:11:15;;;;;;;3.80;0.80;;;15.20;33.50;;;;;;5048355;28;20139;-67
2023/10/08 10:13:50;;;;;;;4.13;1.02;;;15.30;34.10;;;;;;5049854;28;20041;-68
2023/10/08 10:16:19;;;;;;;5.60;0.95;;;15.40;38.80;;;;;;5051699;28;20048;-68
2023/10/08 10:18:48;;;;;;;7.35;0.82;;;15.40;7.70;;;;;;5054922;28;20143;-74
2023/10/08 10:21:15;;;;;;;8.00;1.13;;;15.40;23.70;;;;;;5056372;28;20048;-84
2023/10/08 10:23:53;;;;;;;8.18;1.15;;;15.50;1.00;;;;;;5047183;28;20104;-69
2023/10/08 10:26:35;;;;;;;6.38;1.00;;;15.50;1.00;;;;;;5046777;28;20056;-68
2023/10/08 10:29:16;;;;;;;6.65;0.98;;;15.40;1.00;;;;;;5055357;28;20053;-68
2023/10/08 10:31:46;;;;;;;5.35;1.10;;;15.50;15.80;;;;;;5047336;28;20037;-78
2023/10/08 10:34:17;;;;;;;5.10;0.93;;;15.50;31.50;;;;;;5053727;28;20495;-68
2023/10/08 10:36:48;;;;;;;4.00;0.88;;;15.60;25.40;;;;;;5046061;28;20045;-87
2023/10/08 10:39:26;;;;;;;4.63;1.40;;;15.60;27.60;;;;;;5047703;28;20306;-68
2023/10/08 10:42:06;;;;;;;6.45;1.08;;;15.70;29.00;;;;;;5048423;28;20453;-68
2023/10/08 10:44:36;;;;;;;1.73;0.80;;;15.70;25.60;;;;;;5044554;28;20401;-68
2023/10/08 10:49:56;;;;;;;4.03;0.80;;;15.80;15.10;;;;;;5079870;28;20057;-68
2023/10/08 10:52:44;;;;;;;12.93;1.95;;;15.80;1.00;;;;;;5053593;28;20040;-68
2023/10/08 10:57:55;;;;;;;2.60;0.88;;;15.70;1.00;;;;;;5048097;28;20041;-70
2023/10/08 11:03:03;;;;;;;9.20;1.25;;;15.70;1.00;;;;;;5085083;28;20395;-67
2023/10/08 11:05:37;;;;;;;5.75;1.00;;;15.70;1.00;;;;;;5050793;28;20127;-67
2023/10/08 11:08:06;;;;;;;5.70;0.80;;;15.80;4.80;;;;;;5062924;28;20040;-73
2023/10/08 11:10:33;;;;;;;3.55;1.27;;;15.80;4.50;;;;;;5046641;28;20045;-67
2023/10/08 11:13:03;;;;;;;7.95;1.50;;;15.90;1.60;;;;;;5079861;28;20037;-67
2023/10/08 11:15:40;;;;;;;4.68;1.02;;;15.90;1.00;;;;;;5045385;28;20053;-72
2023/10/08 11:18:22;;;;;;;5.93;1.02;;;16.00;2.90;;;;;;5054563;28;20312;-68
2023/10/08 11:21:01;;;;;;;3.47;0.93;;;16.00;1.00;;;;;;5047366;28;20361;-68
2023/10/08 11:23:34;;;;;;;6.10;1.13;;;16.00;1.00;;;;;;5047572;28;20142;-68
2023/10/08 11:26:04;;;;;;;7.43;1.02;;;16.00;1.00;;;;;;5049489;28;20507;-68
2023/10/08 11:28:41;;;;;;;4.47;1.25;;;16.00;1.00;;;;;;5058817;28;20654;-68
2023/10/08 11:31:10;;;;;;;7.32;1.00;;;16.20;1.00;;;;;;5045036;28;20454;-67
2023/10/08 11:33:38;;;;;;;4.43;1.45;;;16.30;1.00;;;;;;5047313;28;20064;-67
2023/10/08 11:36:27;;;;;;;4.65;0.73;;;16.30;1.00;;;;;;5055202;28;20036;-67
2023/10/08 11:39:00;;;;;;;4.35;0.90;;;16.30;1.00;;;;;;5037083;28;20055;-67
2023/10/08 11:41:27;;;;;;;6.45;1.08;;;16.40;1.00;;;;;;5045135;28;20408;-67
2023/10/08 11:43:58;;;;;;;6.30;0.93;;;16.40;1.00;;;;;;5048284;28;20037;-67
2023/10/08 11:46:38;;;;;;;10.63;1.08;;;16.40;1.00;;;;;;5048512;28;20049;-68
2023/10/08 11:49:17;;;;;;;3.70;1.15;;;16.40;1.00;;;;;;5040802;28;20456;-68
2023/10/08 11:51:44;;;;;;;10.68;1.05;;;16.40;1.00;;;;;;5048777;28;20037;-68
2023/10/08 11:54:14;;;;;;;8.40;1.50;;;16.50;1.00;;;;;;5035349;28;20057;-69
2023/10/08 11:56:40;;;;;;;3.58;0.85;;;16.50;1.00;;;;;;5048236;28;20058;-68
2023/10/08 11:59:08;;;;;;;7.63;1.20;;;16.40;1.00;;;;;;5044495;28;20495;-68
2023/10/08 12:01:42;;;;;;;7.13;0.77;;;16.50;1.00;;;;;;5053497;28;20065;-86
2023/10/08 12:04:16;;;;;;;1.50;0.55;;;16.40;1.00;;;;;;5049342;28;20045;-68
2023/10/08 12:06:51;;;;;;;4.22;1.38;;;16.40;1.00;;;;;;5046451;28;20399;-68
2023/10/08 12:09:21;;;;;;;6.68;1.10;;;16.30;1.00;;;;;;5047003;28;20072;-67
2023/10/08 12:11:47;;;;;;;;;;;16.30;1.00;;;;;;5046603;28;20040;-67
2023/10/08 12:14:14;;;;;;;4.25;0.90;;;16.20;1.00;;;;;;5048427;28;20032;-71
2023/10/08 12:16:41;;;;;;;4.10;0.93;;;16.20;1.00;;;;;;5077991;28;20048;-67
2023/10/08 12:19:17;;;;;;;4.80;1.00;;;16.10;1.00;;;;;;5045216;28;20067;-65
2023/10/08 12:21:46;;;;;;;2.97;0.75;;;16.10;1.00;;;;;;5046522;28;20134;-65
2023/10/08 12:24:12;;;;;;;3.93;1.17;;;16.10;1.00;;;;;;5046580;28;20041;-65
2023/10/08 12:26:45;;;;;;;5.80;0.90;;;16.10;1.00;;;;;;5047533;28;20041;-65
2023/10/08 12:29:16;;;;;;;2.40;1.10;;;16.00;1.00;;;;;;5077807;28;20049;-65
2023/10/08 12:31:47;;;;;;;4.00;0.73;;;16.00;1.00;;;;;;5046461;28;20493;-65
2023/10/08 12:34:13;;;;;;;7.10;1.00;;;15.90;1.00;;;;;;5017096;28;20506;-64
2023/10/08 12:36:39;;;;;;;3.70;0.90;;;15.90;1.00;;;;;;5053218;28;20063;-67
2023/10/08 12:39:28;;;;;;;3.72;0.90;;;16.00;1.00;;;;;;5062108;28;20045;-67
2023/10/08 12:41:54;;;;;;;4.25;1.13;;;16.00;1.00;;;;;;5045775;28;20487;-68
2023/10/08 12:44:19;;;;;;;4.90;1.00;;;16.00;1.00;;;;;;5045062;28;20049;-67
2023/10/08 12:46:48;;;;;;;3.42;0.85;;;16.10;1.00;;;;;;5049071;28;20041;-67
2023/10/08 12:49:14;;;;;;;5.85;0.90;;;16.20;1.00;;;;;;5048998;28;20053;-82
2023/10/08 12:51:41;;;;;;;3.00;0.98;;;16.30;1.00;;;;;;5047109;28;20036;-67
2023/10/08 12:54:08;;;;;;;2.85;1.00;;;16.30;1.00;;;;;;5043968;28;20499;-67
2023/10/08 12:56:54;;;;;;;6.30;1.38;;;16.40;1.00;;;;;;5074724;28;20561;-81
2023/10/08 12:59:20;;;;;;;4.40;0.90;;;16.50;1.00;;;;;;5076559;28;20049;-67
2023/10/08 13:01:54;;;;;;;6.57;1.63;;;16.50;1.00;;;;;;5058837;28;20044;-67
2023/10/08 13:04:34;;;;;;;2.60;0.70;;;16.60;1.00;;;;;;5064827;28;20044;-84
2023/10/08 13:07:03;;;;;;;4.75;1.00;;;16.60;1.00;;;;;;5064414;28;20799;-68
2023/10/08 13:09:36;;;;;;;2.87;0.90;;;16.70;1.00;;;;;;5058427;28;20048;-68
2023/10/08 13:12:03;;;;;;;3.92;1.23;;;16.70;1.00;;;;;;5048563;28;20040;-67
2023/10/08 13:14:29;;;;;;;4.47;0.93;;;16.60;1.00;;;;;;5087079;28;20462;-67
2023/10/08 13:16:55;;;;;;;8.52;0.98;;;16.60;1.00;;;;;;5049051;28;20189;-68
2023/10/08 13:19:26;;;;;;;1.92;0.80;;;16.50;1.00;;;;;;5062232;28;20053;-67
2023/10/08 13:21:54;;;;;;;7.00;1.23;;;16.40;1.00;;;;;;5065057;28;20419;-67
2023/10/08 13:24:21;;;;;;;5.53;0.90;;;16.30;1.00;;;;;;5049087;28;20047;-68
2023/10/08 13:26:47;;;;;;;6.10;0.75;;;16.30;1.00;;;;;;5083062;28;20048;-67
2023/10/08 13:29:14;;;;;;;5.45;0.82;;;16.30;1.00;;;;;;5051432;28;20169;-67
2023/10/08 13:31:40;;;;;;;3.60;0.95;;;16.30;1.00;;;;;;5063590;28;20063;-67
2023/10/08 13:34:08;;;;;;;6.53;1.30;;;16.30;1.00;;;;;;5049239;28;20057;-68
2023/10/08 13:36:38;;;;;;;3.47;0.85;;;16.30;1.00;;;;;;5050076;28;20510;-70
2023/10/08 13:39:17;;;;;;;8.95;1.58;;;16.20;1.00;;;;;;5051478;28;20057;-67
2023/10/08 13:41:47;;;;;;;4.55;1.00;;;16.20;1.00;;;;;;5046777;28;20056;-67
2023/10/08 13:44:14;;;;;;;4.60;0.82;;;16.20;1.00;;;;;;5048466;28;20503;-67
2023/10/08 13:46:48;;;;;;;1.92;0.93;;;16.20;1.00;;;;;;5080697;28;20126;-67
2023/10/08 13:49:16;;;;;;;3.88;1.05;;;16.30;1.00;;;;;;5060575;28;20516;-67
2023/10/08 13:51:44;;;;;;;4.55;1.02;;;16.30;1.00;;;;;;5046822;28;20041;-67
2023/10/08 13:54:10;;;;;;;2.05;0.70;;;16.20;1.00;;;;;;5049914;28;20056;-67
2023/10/08 13:56:37;;;;;;;8.93;1.15;;;16.20;1.00;;;;;;5049836;28;20049;-68
2023/10/08 13:59:04;;;;;;;4.32;1.00;;;16.10;1.00;;;;;;5054880;28;20044;-67
2023/10/08 14:01:34;;;;;;;6.90;1.33;;;16.00;1.00;;;;;;5051502;28;20045;-67
2023/10/08 14:04:07;;;;;;;4.65;0.77;;;16.00;1.00;;;;;;5047410;28;20088;-67
2023/10/08 14:06:40;;;;;;;8.30;1.25;;;15.90;1.00;;;;;;5048143;28;20450;-67
2023/10/08 14:09:08;;;;;;;1.70;0.75;;;15.90;1.00;;;;;;5047620;28;20056;-67
2023/10/08 14:11:34;;;;;;;3.35;1.00;;;15.80;1.00;;;;;;5048747;28;20129;-67
2023/10/08 14:14:07;;;;;;;7.55;1.10;;;15.80;1.00;;;;;;5049912;28;20132;-67
2023/10/08 14:16:42;;;;;;;3.03;0.88;;;15.80;1.00;;;;;;5062955;28;20061;-67
2023/10/08 14:19:12;;;;;;;6.95;1.02;;;15.70;1.00;;;;;;5082176;28;20075;-67
2023/10/08 14:21:54;;;;;;;2.97;0.90;;;15.60;1.00;;;;;;5035657;28;20040;-67